createdAt,value
2023-05-22T00:00:28.586Z,15.45
2023-05-22T00:03:17.207Z,15.49
2023-05-22T00:05:45.932Z,15.49
2023-05-22T00:08:14.719Z,15.51
2023-05-22T00:10:43.429Z,15.49
2023-05-22T00:13:11.957Z,15.48
2023-05-22T00:15:40.495Z,15.44
2023-05-22T00:18:09.297Z,15.33
2023-05-22T00:20:39.549Z,15.29
2023-05-22T00:23:11.365Z,15.23
2023-05-22T00:25:41.542Z,15.19
2023-05-22T00:28:12.208Z,15.13
2023-05-22T00:30:40.989Z,15.10
2023-05-22T00:33:10.039Z,15.02
2023-05-22T00:35:38.782Z,14.99
2023-05-22T00:38:08.774Z,14.95
2023-05-22T00:40:37.769Z,14.91
2023-05-22T00:43:08.906Z,14.84
2023-05-22T00:45:38.364Z,14.77
2023-05-22T00:48:09.928Z,14.71
2023-05-22T00:50:38.803Z,14.56
2023-05-22T00:53:09.809Z,14.42
2023-05-22T00:55:38.598Z,14.28
2023-05-22T00:58:11.716Z,14.12
2023-05-22T01:00:42.819Z,13.94
2023-05-22T01:03:11.866Z,13.87
2023-05-22T01:05:42.379Z,13.84
2023-05-22T01:08:12.225Z,13.74
2023-05-22T01:10:41.613Z,13.55
2023-05-22T01:13:43.255Z,13.41
2023-05-22T01:16:21.053Z,13.28
2023-05-22T01:19:21.987Z,13.18
2023-05-22T01:22:02.624Z,12.99
2023-05-22T01:25:00.547Z,12.90
2023-05-22T01:27:51.972Z,12.75
2023-05-22T01:30:40.847Z,12.63
2023-05-22T01:33:13.633Z,12.54
2023-05-22T01:35:45.834Z,12.44
2023-05-22T01:38:15.977Z,12.37
2023-05-22T01:40:46.751Z,12.21
2023-05-22T01:43:16.589Z,12.07
2023-05-22T01:45:47.179Z,12.10
2023-05-22T01:48:16.347Z,12.04
2023-05-22T01:50:45.865Z,11.98
2023-05-22T01:53:56.292Z,12.01
2023-05-22T01:56:57.982Z,11.84
2023-05-22T01:59:48.643Z,11.80
2023-05-22T02:02:20.853Z,11.75
2023-05-22T02:04:57.625Z,11.71
2023-05-22T02:07:27.938Z,11.63
2023-05-22T02:09:58.912Z,11.61
2023-05-22T02:12:28.121Z,11.59
2023-05-22T02:14:57.301Z,11.51
2023-05-22T02:17:26.433Z,11.36
2023-05-22T02:19:55.102Z,11.30
2023-05-22T02:22:23.821Z,11.24
2023-05-22T02:24:52.460Z,11.26
2023-05-22T02:27:21.083Z,11.23
2023-05-22T02:29:49.751Z,11.16
2023-05-22T02:32:18.845Z,11.15
2023-05-22T02:34:48.468Z,11.11
2023-05-22T02:37:17.058Z,11.06
2023-05-22T02:39:45.750Z,10.99
2023-05-22T02:42:14.354Z,10.99
2023-05-22T02:44:42.880Z,11.01
2023-05-22T02:47:11.566Z,10.97
2023-05-22T02:49:41.199Z,10.99
2023-05-22T02:52:09.821Z,10.99
2023-05-22T02:54:38.425Z,11.04
2023-05-22T02:57:07.066Z,11.09
2023-05-22T02:59:37.017Z,11.09
2023-05-22T03:02:06.368Z,11.13
2023-05-22T03:04:38.638Z,11.12
2023-05-22T03:07:07.563Z,11.18
2023-05-22T03:09:36.190Z,11.23
2023-05-22T03:12:05.684Z,11.25
2023-05-22T03:14:35.226Z,11.31
2023-05-22T03:17:04.243Z,11.36
2023-05-22T03:19:33.155Z,11.45
2023-05-22T03:22:02.064Z,11.40
2023-05-22T03:24:31.685Z,11.37
2023-05-22T03:27:01.157Z,11.22
2023-05-22T03:29:37.288Z,11.17
2023-05-22T03:32:07.085Z,11.17
2023-05-22T03:34:36.258Z,11.17
2023-05-22T03:37:06.146Z,11.18
2023-05-22T03:39:36.225Z,11.11
2023-05-22T03:42:16.424Z,11.16
2023-05-22T03:44:45.179Z,11.20
2023-05-22T03:47:14.063Z,11.24
2023-05-22T03:49:42.809Z,11.25
2023-05-22T03:52:11.625Z,11.33
2023-05-22T03:54:40.453Z,11.36
2023-05-22T03:57:09.196Z,11.50
2023-05-22T03:59:37.971Z,11.58
2023-05-22T04:02:06.963Z,11.61
2023-05-22T04:04:38.856Z,11.70
2023-05-22T04:07:09.267Z,11.75
2023-05-22T04:09:38.100Z,11.83
2023-05-22T04:12:08.080Z,11.92
2023-05-22T04:14:36.759Z,12.05
2023-05-22T04:17:05.456Z,12.18
2023-05-22T04:19:34.139Z,12.25
2023-05-22T04:22:02.946Z,12.34
2023-05-22T04:24:31.741Z,12.43
2023-05-22T04:27:02.549Z,12.50
2023-05-22T04:29:31.367Z,12.60
2023-05-22T04:32:00.419Z,12.66
2023-05-22T04:34:30.456Z,12.79
2023-05-22T04:37:00.300Z,12.91
2023-05-22T04:39:30.712Z,13.05
2023-05-22T04:42:06.152Z,13.23
2023-05-22T04:44:34.858Z,13.38
2023-05-22T04:47:06.917Z,13.48
2023-05-22T04:49:36.514Z,13.62
2023-05-22T04:52:08.730Z,13.74
2023-05-22T04:54:37.939Z,13.80
2023-05-22T04:57:06.630Z,13.92
2023-05-22T04:59:41.688Z,14.06
2023-05-22T05:02:11.036Z,14.21
2023-05-22T05:04:39.969Z,14.31
2023-05-22T05:07:09.251Z,14.41
2023-05-22T05:09:37.871Z,14.45
2023-05-22T05:12:06.973Z,14.53
2023-05-22T05:14:35.579Z,14.58
2023-05-22T05:17:04.852Z,14.63
2023-05-22T05:19:36.870Z,14.68
2023-05-22T05:22:06.243Z,14.71
2023-05-22T05:24:35.285Z,14.79
2023-05-22T05:27:04.790Z,14.84
2023-05-22T05:29:33.907Z,14.88
2023-05-22T05:32:09.303Z,14.94
2023-05-22T05:34:49.829Z,14.98
2023-05-22T05:37:37.124Z,15.05
2023-05-22T05:40:09.557Z,15.09
2023-05-22T05:42:42.229Z,15.10
2023-05-22T05:45:14.399Z,15.21
2023-05-22T05:47:44.185Z,15.26
2023-05-22T05:50:15.848Z,15.35
2023-05-22T05:52:45.327Z,15.39
2023-05-22T05:55:17.609Z,15.46
2023-05-22T05:57:46.468Z,15.45
2023-05-22T06:00:22.780Z,15.56
2023-05-22T06:02:52.466Z,15.64
2023-05-22T06:05:46.026Z,15.74
2023-05-22T06:08:45.023Z,15.83
2023-05-22T06:11:15.095Z,15.89
2023-05-22T06:13:52.916Z,15.90
2023-05-22T06:16:22.027Z,15.95
2023-05-22T06:18:52.748Z,16.00
2023-05-22T06:21:21.486Z,16.09
2023-05-22T06:23:51.814Z,16.13
2023-05-22T06:26:20.726Z,16.18
2023-05-22T06:28:51.957Z,16.29
2023-05-22T06:31:23.088Z,16.42
2023-05-22T06:33:52.369Z,16.55
2023-05-22T06:36:21.745Z,16.64
2023-05-22T06:38:50.393Z,16.66
2023-05-22T06:41:38.966Z,16.75
2023-05-22T06:44:08.801Z,16.84
2023-05-22T06:46:40.213Z,16.91
2023-05-22T06:49:08.998Z,16.99
2023-05-22T06:51:44.768Z,17.06
2023-05-22T06:54:15.347Z,17.13
2023-05-22T06:56:46.158Z,17.17
2023-05-22T06:59:18.980Z,17.24
2023-05-22T07:02:12.833Z,17.32
2023-05-22T07:05:22.398Z,17.41
2023-05-22T07:07:55.922Z,17.50
2023-05-22T07:10:28.147Z,17.54
2023-05-22T07:12:58.958Z,17.60
2023-05-22T07:15:27.626Z,17.67
2023-05-22T07:17:57.801Z,17.72
2023-05-22T07:20:26.520Z,17.76
2023-05-22T07:23:12.625Z,17.84
2023-05-22T07:25:41.377Z,17.91
2023-05-22T07:28:10.884Z,17.96
2023-05-22T07:30:47.819Z,17.97
2023-05-22T07:33:18.397Z,18.01
2023-05-22T07:35:47.215Z,18.05
2023-05-22T07:38:16.069Z,18.14
2023-05-22T07:40:50.643Z,18.22
2023-05-22T07:43:21.942Z,18.29
2023-05-22T07:45:51.738Z,18.36
2023-05-22T07:48:22.179Z,18.42
2023-05-22T07:50:52.958Z,18.46
2023-05-22T07:53:21.935Z,18.50
2023-05-22T07:55:52.137Z,18.63
2023-05-22T07:58:21.142Z,18.62
2023-05-22T08:00:51.202Z,18.60
2023-05-22T08:03:22.283Z,18.67
2023-05-22T08:05:52.672Z,18.73
2023-05-22T08:08:21.387Z,18.82
2023-05-22T08:11:03.085Z,18.91
2023-05-22T08:13:33.118Z,19.02
2023-05-22T08:16:01.843Z,19.13
2023-05-22T08:18:30.776Z,19.23
2023-05-22T08:21:00.736Z,19.28
2023-05-22T08:23:30.109Z,19.32
2023-05-22T08:25:58.766Z,19.30
2023-05-22T08:28:27.450Z,19.32
2023-05-22T08:30:56.130Z,19.33
2023-05-22T08:33:24.864Z,19.42
2023-05-22T08:35:53.549Z,19.52
2023-05-22T08:38:22.167Z,19.53
2023-05-22T08:40:54.476Z,19.59
2023-05-22T08:43:23.881Z,19.64
2023-05-22T08:46:03.665Z,19.65
2023-05-22T08:48:33.502Z,19.70
2023-05-22T08:51:06.296Z,19.76
2023-05-22T08:54:16.651Z,19.78
2023-05-22T08:56:56.289Z,19.81
2023-05-22T08:59:26.291Z,19.89
2023-05-22T09:01:55.177Z,19.94
2023-05-22T09:04:25.405Z,19.99
2023-05-22T09:06:55.290Z,20.10
2023-05-22T09:09:24.131Z,20.16
2023-05-22T09:11:55.116Z,20.31
2023-05-22T09:14:25.395Z,20.40
2023-05-22T09:16:55.207Z,20.52
2023-05-22T09:19:23.881Z,20.55
2023-05-22T09:21:52.626Z,20.64
2023-05-22T09:24:21.430Z,20.72
2023-05-22T09:26:52.762Z,20.84
2023-05-22T09:29:22.733Z,20.90
2023-05-22T09:31:51.640Z,20.92
2023-05-22T09:34:20.581Z,21.04
2023-05-22T09:36:50.357Z,21.11
2023-05-22T09:39:19.094Z,21.23
2023-05-22T09:41:47.739Z,21.36
2023-05-22T09:44:16.824Z,21.45
2023-05-22T09:46:47.817Z,21.53
2023-05-22T09:49:17.585Z,21.56
2023-05-22T09:51:49.703Z,21.53
2023-05-22T09:54:22.139Z,21.52
2023-05-22T09:56:54.939Z,21.60
2023-05-22T09:59:30.406Z,21.75
2023-05-22T10:02:02.299Z,21.88
2023-05-22T10:04:33.567Z,22.05
2023-05-22T10:07:03.951Z,22.16
2023-05-22T10:09:36.110Z,22.13
2023-05-22T10:12:08.443Z,22.18
2023-05-22T10:14:37.168Z,22.23
2023-05-22T10:17:07.118Z,22.33
2023-05-22T10:19:38.579Z,22.34
2023-05-22T10:22:11.858Z,22.42
2023-05-22T10:24:41.458Z,22.59
2023-05-22T10:27:10.178Z,22.64
2023-05-22T10:29:55.852Z,22.65
2023-05-22T10:32:50.843Z,22.53
2023-05-22T10:39:37.887Z,22.25
2023-05-22T10:42:13.033Z,22.23
2023-05-22T10:44:43.833Z,22.23
2023-05-22T10:47:13.714Z,22.25
2023-05-22T10:49:45.719Z,22.36
2023-05-22T10:52:15.205Z,22.58
2023-05-22T10:54:46.084Z,22.80
2023-05-22T10:57:17.105Z,23.03
2023-05-22T10:59:48.990Z,23.22
2023-05-22T11:02:30.004Z,23.18
2023-05-22T11:05:21.794Z,23.18
2023-05-22T11:07:50.808Z,23.03
2023-05-22T11:10:59.393Z,22.92
2023-05-22T11:13:29.682Z,22.71
2023-05-22T11:15:58.598Z,22.65
2023-05-22T11:19:21.219Z,22.54
2023-05-22T11:21:52.198Z,22.46
2023-05-22T11:24:20.945Z,22.48
2023-05-22T11:27:06.881Z,22.60
2023-05-22T11:29:35.969Z,22.77
2023-05-22T11:32:09.440Z,22.90
2023-05-22T11:34:40.858Z,22.92
2023-05-22T11:37:10.045Z,22.84
2023-05-22T11:39:38.942Z,22.74
2023-05-22T11:42:07.714Z,22.66
2023-05-22T11:44:40.945Z,22.73
2023-05-22T11:47:09.827Z,22.74
2023-05-22T11:49:38.608Z,22.91
2023-05-22T11:52:07.882Z,23.12
2023-05-22T11:54:38.757Z,23.29
2023-05-22T11:57:09.690Z,23.27
2023-05-22T11:59:38.318Z,23.17
2023-05-22T12:02:09.952Z,23.07
2023-05-22T12:04:38.681Z,22.98
2023-05-22T12:07:08.294Z,22.93
2023-05-22T12:09:40.773Z,22.96
2023-05-22T12:12:12.549Z,23.15
2023-05-22T12:14:47.672Z,23.34
2023-05-22T12:17:18.330Z,23.39
2023-05-22T12:19:47.853Z,23.44
2023-05-22T12:22:16.639Z,23.47
2023-05-22T12:24:48.851Z,23.56
2023-05-22T12:27:17.642Z,23.61
2023-05-22T12:29:46.328Z,23.68
2023-05-22T12:32:14.944Z,23.70
2023-05-22T12:34:46.026Z,23.70
2023-05-22T12:37:25.359Z,23.67
2023-05-22T12:40:04.925Z,23.66
2023-05-22T12:42:33.645Z,23.75
2023-05-22T12:45:02.224Z,23.80
2023-05-22T12:47:30.948Z,23.83
2023-05-22T12:49:59.579Z,23.87
2023-05-22T12:52:29.545Z,23.96
2023-05-22T12:54:58.591Z,24.01
2023-05-22T12:57:27.512Z,24.13
2023-05-22T12:59:56.112Z,24.12
2023-05-22T13:02:25.108Z,24.08
2023-05-22T13:04:53.921Z,24.12
2023-05-22T13:07:22.776Z,24.18
2023-05-22T13:09:51.819Z,24.21
2023-05-22T13:12:20.817Z,24.24
2023-05-22T13:14:49.623Z,24.23
2023-05-22T13:17:18.402Z,24.31
2023-05-22T13:19:47.227Z,24.46
2023-05-22T13:22:15.934Z,24.60
2023-05-22T13:24:44.845Z,24.55
2023-05-22T13:27:13.634Z,24.55
2023-05-22T13:29:42.254Z,24.52
2023-05-22T13:32:14.058Z,24.67
2023-05-22T13:34:42.711Z,24.69
2023-05-22T13:37:11.798Z,24.60
2023-05-22T13:39:41.163Z,24.48
2023-05-22T13:42:09.920Z,24.51
2023-05-22T13:44:39.334Z,24.40
2023-05-22T13:47:08.125Z,24.42
2023-05-22T13:49:36.733Z,24.52
2023-05-22T13:52:05.866Z,24.64
2023-05-22T13:54:34.644Z,24.76
2023-05-22T13:57:03.220Z,24.88
2023-05-22T13:59:31.892Z,24.96
2023-05-22T14:02:00.632Z,24.98
2023-05-22T14:04:29.537Z,24.92
2023-05-22T14:06:59.910Z,24.88
2023-05-22T14:09:28.801Z,24.77
2023-05-22T14:12:00.588Z,24.60
2023-05-22T14:14:29.199Z,24.56
2023-05-22T14:16:58.178Z,24.49
2023-05-22T14:19:26.920Z,24.47
2023-05-22T14:21:55.747Z,24.44
2023-05-22T14:24:24.328Z,24.58
2023-05-22T14:26:58.144Z,24.74
2023-05-22T14:29:28.751Z,24.96
2023-05-22T14:32:04.437Z,25.08
2023-05-22T14:34:33.335Z,25.03
2023-05-22T14:37:02.090Z,25.05
2023-05-22T14:39:30.790Z,25.14
2023-05-22T14:41:59.575Z,25.19
2023-05-22T14:44:28.334Z,25.26
2023-05-22T14:46:57.242Z,25.34
2023-05-22T14:49:25.872Z,25.40
2023-05-22T14:51:54.863Z,25.40
2023-05-22T14:54:24.138Z,25.41
2023-05-22T14:56:52.916Z,25.38
2023-05-22T14:59:21.580Z,25.32
2023-05-22T15:02:00.394Z,25.32
2023-05-22T15:04:29.104Z,25.30
2023-05-22T15:06:57.938Z,25.47
2023-05-22T15:09:26.639Z,25.65
2023-05-22T15:11:56.005Z,25.95
2023-05-22T15:14:24.671Z,26.41
2023-05-22T15:16:53.365Z,26.58
2023-05-22T15:19:22.158Z,26.67
2023-05-22T15:21:50.989Z,27.02
2023-05-22T15:24:19.524Z,27.35
2023-05-22T15:26:49.547Z,27.77
2023-05-22T15:29:18.414Z,27.96
2023-05-22T15:31:47.660Z,27.69
2023-05-22T15:34:16.511Z,27.78
2023-05-22T15:36:45.129Z,27.94
2023-05-22T15:39:13.939Z,28.08
2023-05-22T15:41:48.827Z,28.22
2023-05-22T15:44:23.770Z,28.25
2023-05-22T15:46:52.496Z,28.41
2023-05-22T15:49:21.309Z,28.60
2023-05-22T15:51:50.116Z,28.69
2023-05-22T15:54:18.953Z,28.72
2023-05-22T15:56:47.755Z,28.76
2023-05-22T15:59:16.412Z,28.71
2023-05-22T16:01:45.340Z,28.80
2023-05-22T16:04:14.268Z,28.84
2023-05-22T16:06:43.243Z,28.60
2023-05-22T16:09:12.674Z,28.42
2023-05-22T16:11:41.643Z,28.22
2023-05-22T16:14:10.650Z,27.87
2023-05-22T16:16:39.297Z,27.72
2023-05-22T16:19:08.121Z,27.46
2023-05-22T16:21:37.169Z,27.48
2023-05-22T16:24:07.277Z,27.60
2023-05-22T16:26:37.894Z,27.76
2023-05-22T16:29:11.252Z,27.87
2023-05-22T16:31:39.965Z,27.93
2023-05-22T16:34:08.758Z,27.89
2023-05-22T16:36:37.257Z,27.72
2023-05-22T16:39:05.934Z,27.71
2023-05-22T16:41:34.714Z,27.72
2023-05-22T16:44:04.051Z,27.72
2023-05-22T16:46:32.931Z,27.62
2023-05-22T16:49:01.840Z,27.54
2023-05-22T16:51:32.224Z,27.49
2023-05-22T16:54:00.993Z,27.45
2023-05-22T16:56:32.952Z,27.33
2023-05-22T16:59:02.172Z,27.09
2023-05-22T17:01:31.964Z,26.66
2023-05-22T17:04:00.715Z,26.19
2023-05-22T17:06:30.256Z,25.81
2023-05-22T17:08:59.023Z,25.50
2023-05-22T17:11:27.906Z,25.18
2023-05-22T17:13:56.603Z,24.89
2023-05-22T17:16:25.407Z,24.63
2023-05-22T17:18:55.074Z,24.40
2023-05-22T17:21:24.354Z,24.19
2023-05-22T17:23:52.857Z,23.98
2023-05-22T17:26:21.612Z,23.77
2023-05-22T17:28:50.335Z,23.62
2023-05-22T17:31:19.046Z,23.41
2023-05-22T17:33:48.019Z,23.25
2023-05-22T17:36:17.164Z,23.12
2023-05-22T17:38:46.327Z,22.99
2023-05-22T17:41:16.186Z,22.84
2023-05-22T17:43:47.177Z,22.73
2023-05-22T17:46:16.707Z,22.62
2023-05-22T17:48:45.477Z,22.49
2023-05-22T17:51:14.320Z,22.38
2023-05-22T17:53:43.355Z,22.27
2023-05-22T17:56:12.072Z,22.17
2023-05-22T17:58:41.609Z,22.08
2023-05-22T18:01:10.759Z,21.98
2023-05-22T18:03:39.720Z,21.89
2023-05-22T18:06:08.716Z,21.80
2023-05-22T18:08:37.544Z,21.72
2023-05-22T18:11:06.384Z,21.65
2023-05-22T18:13:35.391Z,21.58
2023-05-22T18:16:04.707Z,21.50
2023-05-22T18:18:33.971Z,21.43
2023-05-22T18:21:03.715Z,21.38
2023-05-22T18:23:33.042Z,21.33
2023-05-22T18:26:02.070Z,21.27
2023-05-22T18:28:31.034Z,21.23
2023-05-22T18:31:01.621Z,21.20
2023-05-22T18:33:31.642Z,21.18
2023-05-22T18:36:01.060Z,21.15
2023-05-22T18:38:31.153Z,21.13
2023-05-22T18:41:00.460Z,21.12
2023-05-22T18:43:29.802Z,21.13
2023-05-22T18:45:59.148Z,21.09
2023-05-22T18:48:28.532Z,21.05
2023-05-22T18:50:58.105Z,20.96
2023-05-22T18:53:27.832Z,20.90
2023-05-22T18:55:56.711Z,20.86
2023-05-22T18:58:25.789Z,20.84
2023-05-22T19:00:56.033Z,20.85
2023-05-22T19:03:25.085Z,20.86
2023-05-22T19:05:53.897Z,20.88
2023-05-22T19:08:25.163Z,20.89
2023-05-22T19:11:00.009Z,20.88
2023-05-22T19:13:29.462Z,20.88
2023-05-22T19:15:58.471Z,20.89
2023-05-22T19:18:28.672Z,20.86
2023-05-22T19:20:57.555Z,20.80
2023-05-22T19:23:26.306Z,20.73
2023-05-22T19:25:58.375Z,20.70
2023-05-22T19:28:28.036Z,20.64
2023-05-22T19:31:00.722Z,20.53
2023-05-22T19:33:31.535Z,20.40
2023-05-22T19:36:03.589Z,20.21
2023-05-22T19:38:33.045Z,20.07
2023-05-22T19:41:02.652Z,19.97
2023-05-22T19:43:31.527Z,19.91
2023-05-22T19:46:00.817Z,19.81
2023-05-22T19:48:33.357Z,19.71
2023-05-22T19:51:04.100Z,19.70
2023-05-22T19:53:34.349Z,19.65
2023-05-22T19:56:03.009Z,19.63
2023-05-22T19:58:31.764Z,19.58
2023-05-22T20:01:00.840Z,19.52
2023-05-22T20:03:30.250Z,19.43
2023-05-22T20:06:01.537Z,19.40
2023-05-22T20:08:30.471Z,19.38
2023-05-22T20:10:59.224Z,19.37
2023-05-22T20:13:27.960Z,19.37
2023-05-22T20:15:57.413Z,19.36
2023-05-22T20:18:26.169Z,19.40
2023-05-22T20:20:54.922Z,19.43
2023-05-22T20:23:23.741Z,19.43
2023-05-22T20:25:52.227Z,19.44
2023-05-22T20:28:20.862Z,19.38
2023-05-22T20:30:50.168Z,19.29
2023-05-22T20:33:19.531Z,19.22
2023-05-22T20:35:49.339Z,19.16
2023-05-22T20:38:20.144Z,19.03
2023-05-22T20:40:48.824Z,18.94
2023-05-22T20:43:18.654Z,18.84
2023-05-22T20:45:49.243Z,18.78
2023-05-22T20:48:19.209Z,18.66
2023-05-22T20:53:53.662Z,18.48
2023-05-22T20:56:22.223Z,18.34
2023-05-22T20:58:50.977Z,18.22
2023-05-22T21:01:19.784Z,18.10
2023-05-22T21:03:50.203Z,18.06
2023-05-22T21:06:19.254Z,17.99
2023-05-22T21:08:47.809Z,17.95
2023-05-22T21:11:18.147Z,17.91
2023-05-22T21:13:46.818Z,17.87
2023-05-22T21:16:15.389Z,17.81
2023-05-22T21:18:44.188Z,17.77
2023-05-22T21:21:16.604Z,17.74
2023-05-22T21:23:45.438Z,17.70
2023-05-22T21:26:14.306Z,17.60
2023-05-22T21:28:43.993Z,17.55
2023-05-22T21:31:12.619Z,17.45
2023-05-22T21:33:41.427Z,17.38
2023-05-22T21:36:10.082Z,17.34
2023-05-22T21:38:38.568Z,17.31
2023-05-22T21:41:07.275Z,17.18
2023-05-22T21:43:35.969Z,17.13
2023-05-22T21:46:05.386Z,17.07
2023-05-22T21:48:34.132Z,17.05
2023-05-22T21:51:02.851Z,17.03
2023-05-22T21:53:31.569Z,17.03
2023-05-22T21:56:00.270Z,17.02
2023-05-22T21:58:28.881Z,17.04
2023-05-22T22:00:57.603Z,16.98
2023-05-22T22:03:26.368Z,16.94
2023-05-22T22:05:55.069Z,16.89
2023-05-22T22:08:23.714Z,16.87
2023-05-22T22:10:52.758Z,16.80
2023-05-22T22:13:21.434Z,16.76
2023-05-22T22:15:50.299Z,16.73
2023-05-22T22:18:19.120Z,16.65
2023-05-22T22:20:50.397Z,16.64
2023-05-22T22:23:19.448Z,16.62
2023-05-22T22:25:49.155Z,16.59
2023-05-22T22:28:17.671Z,16.49
2023-05-22T22:30:48.033Z,16.43
2023-05-22T22:33:16.672Z,16.37
2023-05-22T22:35:46.134Z,16.35
2023-05-22T22:38:14.938Z,16.27
2023-05-22T22:40:43.784Z,16.19
2023-05-22T22:43:12.530Z,16.15
2023-05-22T22:45:41.384Z,16.12
2023-05-22T22:48:10.188Z,16.01
2023-05-22T22:50:39.084Z,15.95
2023-05-22T22:53:08.235Z,15.86
2023-05-22T22:55:36.997Z,15.85
2023-05-22T22:58:05.535Z,15.77
2023-05-22T23:00:34.115Z,15.72
2023-05-22T23:03:03.235Z,15.69
2023-05-22T23:05:32.074Z,15.63
2023-05-22T23:08:03.174Z,15.56
2023-05-22T23:10:31.937Z,15.50
2023-05-22T23:13:00.514Z,15.39
2023-05-22T23:15:29.287Z,15.32
2023-05-22T23:17:57.834Z,15.30
2023-05-22T23:20:26.649Z,15.26
2023-05-22T23:22:55.513Z,15.23
2023-05-22T23:25:24.404Z,15.17
2023-05-22T23:27:53.008Z,15.16
2023-05-22T23:30:21.702Z,15.13
2023-05-22T23:32:50.890Z,15.03
2023-05-22T23:35:19.685Z,14.96
2023-05-22T23:37:48.302Z,14.95
2023-05-22T23:40:17.117Z,14.91
2023-05-22T23:42:45.753Z,14.90
2023-05-22T23:45:14.294Z,14.85
2023-05-22T23:47:42.878Z,14.75
2023-05-22T23:50:11.866Z,14.66
2023-05-22T23:52:40.989Z,14.64
2023-05-22T23:55:09.880Z,14.65
2023-05-22T23:57:38.547Z,14.61
